sensor_id;sensor_type;location;lat;lon;timestamp;pressure;altitude;pressure_sealevel;temperature;humidity
36138;BME280;67787;50.074;21.904;2024-02-28T00:00:32;99118.23;;;8.05;63.16
36138;BME280;67787;50.074;21.904;2024-02-28T00:03:18;99119.45;;;7.99;63.29
36138;BME280;67787;50.074;21.904;2024-02-28T00:05:45;99118.33;;;7.97;63.32
36138;BME280;67787;50.074;21.904;2024-02-28T00:08:12;99118.55;;;7.94;63.22
36138;BME280;67787;50.074;21.904;2024-02-28T00:10:38;99116.59;;;7.88;63.31
36138;BME280;67787;50.074;21.904;2024-02-28T00:13:05;99113.80;;;7.82;63.41
36138;BME280;67787;50.074;21.904;2024-02-28T00:15:31;99111.52;;;7.76;63.67
36138;BME280;67787;50.074;21.904;2024-02-28T00:17:57;99116.95;;;7.70;63.46
36138;BME280;67787;50.074;21.904;2024-02-28T00:20:24;99119.23;;;7.65;63.46
36138;BME280;67787;50.074;21.904;2024-02-28T00:22:53;99116.41;;;7.62;63.53
36138;BME280;67787;50.074;21.904;2024-02-28T00:25:20;99115.91;;;7.58;63.43
36138;BME280;67787;50.074;21.904;2024-02-28T00:27:46;99119.55;;;7.53;63.49
36138;BME280;67787;50.074;21.904;2024-02-28T00:30:13;99119.75;;;7.47;63.67
36138;BME280;67787;50.074;21.904;2024-02-28T00:32:39;99116.59;;;7.40;63.81
36138;BME280;67787;50.074;21.904;2024-02-28T00:35:07;99118.73;;;7.37;63.83
36138;BME280;67787;50.074;21.904;2024-02-28T00:37:33;99122.39;;;7.35;63.79
36138;BME280;67787;50.074;21.904;2024-02-28T00:39:59;99120.15;;;7.34;63.97
36138;BME280;67787;50.074;21.904;2024-02-28T00:42:26;99118.51;;;7.29;63.87
36138;BME280;67787;50.074;21.904;2024-02-28T00:44:53;99116.65;;;7.27;63.64
36138;BME280;67787;50.074;21.904;2024-02-28T00:47:20;99118.59;;;7.24;63.82
36138;BME280;67787;50.074;21.904;2024-02-28T00:49:46;99118.00;;;7.22;64.11
36138;BME280;67787;50.074;21.904;2024-02-28T00:52:13;99118.49;;;7.23;64.18
36138;BME280;67787;50.074;21.904;2024-02-28T00:54:40;99119.60;;;7.25;64.31
36138;BME280;67787;50.074;21.904;2024-02-28T00:57:06;99119.61;;;7.25;64.35
36138;BME280;67787;50.074;21.904;2024-02-28T00:59:33;99119.89;;;7.23;64.22
36138;BME280;67787;50.074;21.904;2024-02-28T01:01:59;99116.44;;;7.19;64.27
36138;BME280;67787;50.074;21.904;2024-02-28T01:04:26;99117.24;;;7.17;64.53
36138;BME280;67787;50.074;21.904;2024-02-28T01:06:52;99114.91;;;7.18;64.68
36138;BME280;67787;50.074;21.904;2024-02-28T01:09:19;99113.11;;;7.18;64.59
36138;BME280;67787;50.074;21.904;2024-02-28T01:11:45;99119.68;;;7.17;64.38
36138;BME280;67787;50.074;21.904;2024-02-28T01:14:12;99118.23;;;7.12;64.16
36138;BME280;67787;50.074;21.904;2024-02-28T01:16:38;99116.61;;;7.07;64.43
36138;BME280;67787;50.074;21.904;2024-02-28T01:19:05;99121.79;;;7.05;64.56
36138;BME280;67787;50.074;21.904;2024-02-28T01:21:31;99123.02;;;7.05;64.92
36138;BME280;67787;50.074;21.904;2024-02-28T01:23:58;99119.87;;;7.08;64.96
36138;BME280;67787;50.074;21.904;2024-02-28T01:26:24;99120.53;;;7.09;65.05
36138;BME280;67787;50.074;21.904;2024-02-28T01:28:51;99119.21;;;7.04;65.07
36138;BME280;67787;50.074;21.904;2024-02-28T01:31:17;99117.67;;;7.04;65.14
36138;BME280;67787;50.074;21.904;2024-02-28T01:33:43;99119.16;;;7.05;65.40
36138;BME280;67787;50.074;21.904;2024-02-28T01:36:11;99117.64;;;7.07;65.36
36138;BME280;67787;50.074;21.904;2024-02-28T01:38:37;99118.12;;;7.08;65.25
36138;BME280;67787;50.074;21.904;2024-02-28T01:41:04;99120.38;;;7.08;65.29
36138;BME280;67787;50.074;21.904;2024-02-28T01:43:32;99118.35;;;7.07;65.56
36138;BME280;67787;50.074;21.904;2024-02-28T01:46:04;99117.29;;;7.07;65.08
36138;BME280;67787;50.074;21.904;2024-02-28T01:48:31;99121.48;;;7.05;65.34
36138;BME280;67787;50.074;21.904;2024-02-28T01:50:58;99120.41;;;7.02;65.20
36138;BME280;67787;50.074;21.904;2024-02-28T01:53:24;99119.46;;;6.99;65.49
36138;BME280;67787;50.074;21.904;2024-02-28T01:55:51;99123.61;;;6.95;65.20
36138;BME280;67787;50.074;21.904;2024-02-28T01:58:19;99125.41;;;6.91;64.96
36138;BME280;67787;50.074;21.904;2024-02-28T02:00:46;99125.12;;;6.87;64.86
36138;BME280;67787;50.074;21.904;2024-02-28T02:03:13;99128.10;;;6.84;64.93
36138;BME280;67787;50.074;21.904;2024-02-28T02:05:41;99125.42;;;6.81;64.77
36138;BME280;67787;50.074;21.904;2024-02-28T02:08:09;99125.77;;;6.78;65.09
36138;BME280;67787;50.074;21.904;2024-02-28T02:10:35;99124.33;;;6.76;65.33
36138;BME280;67787;50.074;21.904;2024-02-28T02:13:05;99123.37;;;6.71;65.47
36138;BME280;67787;50.074;21.904;2024-02-28T02:15:32;99121.91;;;6.65;65.59
36138;BME280;67787;50.074;21.904;2024-02-28T02:17:58;99118.95;;;6.61;65.46
36138;BME280;67787;50.074;21.904;2024-02-28T02:20:26;99122.02;;;6.60;65.72
36138;BME280;67787;50.074;21.904;2024-02-28T02:22:55;99120.36;;;6.58;65.81
36138;BME280;67787;50.074;21.904;2024-02-28T02:25:22;99119.65;;;6.59;65.84
36138;BME280;67787;50.074;21.904;2024-02-28T02:27:48;99117.89;;;6.58;66.05
36138;BME280;67787;50.074;21.904;2024-02-28T02:30:15;99118.40;;;6.59;65.96
36138;BME280;67787;50.074;21.904;2024-02-28T02:32:42;99119.45;;;6.56;65.68
36138;BME280;67787;50.074;21.904;2024-02-28T02:35:08;99121.27;;;6.51;65.85
36138;BME280;67787;50.074;21.904;2024-02-28T02:37:35;99118.65;;;6.51;66.17
36138;BME280;67787;50.074;21.904;2024-02-28T02:40:01;99116.67;;;6.52;66.11
36138;BME280;67787;50.074;21.904;2024-02-28T02:42:28;99118.55;;;6.52;65.89
36138;BME280;67787;50.074;21.904;2024-02-28T02:44:54;99118.00;;;6.53;66.32
36138;BME280;67787;50.074;21.904;2024-02-28T02:47:21;99120.60;;;6.54;66.43
36138;BME280;67787;50.074;21.904;2024-02-28T02:49:47;99118.95;;;6.59;66.29
36138;BME280;67787;50.074;21.904;2024-02-28T02:52:13;99122.52;;;6.60;66.24
36138;BME280;67787;50.074;21.904;2024-02-28T02:54:40;99122.73;;;6.60;66.43
36138;BME280;67787;50.074;21.904;2024-02-28T02:57:06;99121.55;;;6.62;66.44
36138;BME280;67787;50.074;21.904;2024-02-28T02:59:33;99121.92;;;6.62;66.67
36138;BME280;67787;50.074;21.904;2024-02-28T03:01:59;99126.90;;;6.64;66.69
36138;BME280;67787;50.074;21.904;2024-02-28T03:04:25;99125.69;;;6.67;66.90
36138;BME280;67787;50.074;21.904;2024-02-28T03:06:52;99121.64;;;6.73;66.61
36138;BME280;67787;50.074;21.904;2024-02-28T03:09:18;99121.36;;;6.78;66.74
36138;BME280;67787;50.074;21.904;2024-02-28T03:11:45;99114.13;;;6.81;66.32
36138;BME280;67787;50.074;21.904;2024-02-28T03:14:11;99118.79;;;6.80;66.19
36138;BME280;67787;50.074;21.904;2024-02-28T03:16:42;99114.02;;;6.77;66.84
36138;BME280;67787;50.074;21.904;2024-02-28T03:19:10;99111.48;;;6.82;67.02
36138;BME280;67787;50.074;21.904;2024-02-28T03:21:36;99117.61;;;6.89;66.87
36138;BME280;67787;50.074;21.904;2024-02-28T03:24:03;99116.45;;;6.94;67.05
36138;BME280;67787;50.074;21.904;2024-02-28T03:26:30;99117.33;;;6.96;66.93
36138;BME280;67787;50.074;21.904;2024-02-28T03:28:56;99117.23;;;6.98;66.70
36138;BME280;67787;50.074;21.904;2024-02-28T03:31:23;99120.48;;;6.97;66.60
36138;BME280;67787;50.074;21.904;2024-02-28T03:33:49;99119.02;;;6.98;66.80
36138;BME280;67787;50.074;21.904;2024-02-28T03:36:16;99117.17;;;6.96;67.19
36138;BME280;67787;50.074;21.904;2024-02-28T03:38:42;99116.84;;;6.99;67.04
36138;BME280;67787;50.074;21.904;2024-02-28T03:41:09;99115.39;;;7.03;67.22
36138;BME280;67787;50.074;21.904;2024-02-28T03:43:35;99116.69;;;7.08;67.28
36138;BME280;67787;50.074;21.904;2024-02-28T03:46:02;99115.39;;;7.12;67.29
36138;BME280;67787;50.074;21.904;2024-02-28T03:48:28;99122.11;;;7.12;67.31
36138;BME280;67787;50.074;21.904;2024-02-28T03:50:55;99119.73;;;7.13;67.22
36138;BME280;67787;50.074;21.904;2024-02-28T03:53:21;99117.67;;;7.12;67.01
36138;BME280;67787;50.074;21.904;2024-02-28T03:55:47;99119.20;;;7.13;67.27
36138;BME280;67787;50.074;21.904;2024-02-28T03:58:16;99116.66;;;7.15;67.52
36138;BME280;67787;50.074;21.904;2024-02-28T04:00:43;99114.84;;;7.19;67.34
36138;BME280;67787;50.074;21.904;2024-02-28T04:03:13;99115.27;;;7.24;67.51
36138;BME280;67787;50.074;21.904;2024-02-28T04:05:40;99122.92;;;7.28;67.47
36138;BME280;67787;50.074;21.904;2024-02-28T04:08:07;99126.68;;;7.31;67.28
36138;BME280;67787;50.074;21.904;2024-02-28T04:10:33;99125.55;;;7.32;67.53
36138;BME280;67787;50.074;21.904;2024-02-28T04:13:00;99123.56;;;7.33;67.67
36138;BME280;67787;50.074;21.904;2024-02-28T04:15:26;99127.63;;;7.36;67.53
36138;BME280;67787;50.074;21.904;2024-02-28T04:17:53;99131.04;;;7.38;67.73
36138;BME280;67787;50.074;21.904;2024-02-28T04:20:20;99135.64;;;7.40;67.58
36138;BME280;67787;50.074;21.904;2024-02-28T04:22:46;99139.78;;;7.42;67.57
36138;BME280;67787;50.074;21.904;2024-02-28T04:25:13;99143.38;;;7.44;67.75
36138;BME280;67787;50.074;21.904;2024-02-28T04:27:39;99142.05;;;7.46;67.80
36138;BME280;67787;50.074;21.904;2024-02-28T04:30:06;99143.84;;;7.49;67.68
36138;BME280;67787;50.074;21.904;2024-02-28T04:32:33;99142.95;;;7.51;67.85
36138;BME280;67787;50.074;21.904;2024-02-28T04:35:01;99151.68;;;7.53;67.63
36138;BME280;67787;50.074;21.904;2024-02-28T04:37:29;99149.85;;;7.54;67.59
36138;BME280;67787;50.074;21.904;2024-02-28T04:39:56;99152.23;;;7.52;67.54
36138;BME280;67787;50.074;21.904;2024-02-28T04:42:22;99149.73;;;7.50;67.53
36138;BME280;67787;50.074;21.904;2024-02-28T04:44:49;99148.56;;;7.52;67.51
36138;BME280;67787;50.074;21.904;2024-02-28T04:47:15;99147.52;;;7.55;67.72
36138;BME280;67787;50.074;21.904;2024-02-28T04:49:44;99150.14;;;7.55;67.70
36138;BME280;67787;50.074;21.904;2024-02-28T04:52:10;99155.39;;;7.56;67.79
36138;BME280;67787;50.074;21.904;2024-02-28T04:54:40;99151.98;;;7.57;67.74
36138;BME280;67787;50.074;21.904;2024-02-28T04:57:06;99152.52;;;7.54;67.63
36138;BME280;67787;50.074;21.904;2024-02-28T04:59:33;99154.94;;;7.54;67.80
36138;BME280;67787;50.074;21.904;2024-02-28T05:02:00;99154.92;;;7.58;67.89
36138;BME280;67787;50.074;21.904;2024-02-28T05:04:26;99157.60;;;7.60;67.98
36138;BME280;67787;50.074;21.904;2024-02-28T05:06:53;99158.14;;;7.60;68.07
36138;BME280;67787;50.074;21.904;2024-02-28T05:09:19;99158.66;;;7.60;68.07
36138;BME280;67787;50.074;21.904;2024-02-28T05:11:46;99164.31;;;7.60;67.99
36138;BME280;67787;50.074;21.904;2024-02-28T05:14:12;99167.57;;;7.59;67.78
36138;BME280;67787;50.074;21.904;2024-02-28T05:16:39;99166.14;;;7.56;68.16
36138;BME280;67787;50.074;21.904;2024-02-28T05:19:05;99166.33;;;7.59;68.15
36138;BME280;67787;50.074;21.904;2024-02-28T05:21:39;99166.24;;;7.60;68.08
36138;BME280;67787;50.074;21.904;2024-02-28T05:24:07;99171.79;;;7.62;68.12
36138;BME280;67787;50.074;21.904;2024-02-28T05:26:37;99169.96;;;7.63;68.17
36138;BME280;67787;50.074;21.904;2024-02-28T05:29:05;99168.50;;;7.67;67.95
36138;BME280;67787;50.074;21.904;2024-02-28T05:31:32;99166.40;;;7.76;68.10
36138;BME280;67787;50.074;21.904;2024-02-28T05:34:00;99168.16;;;7.85;68.06
36138;BME280;67787;50.074;21.904;2024-02-28T05:36:29;99164.95;;;7.95;68.05
36138;BME280;67787;50.074;21.904;2024-02-28T05:38:57;99164.39;;;8.03;67.96
36138;BME280;67787;50.074;21.904;2024-02-28T05:41:24;99163.13;;;8.10;68.05
36138;BME280;67787;50.074;21.904;2024-02-28T05:43:51;99163.86;;;8.15;68.06
36138;BME280;67787;50.074;21.904;2024-02-28T05:46:18;99169.48;;;8.19;67.93
36138;BME280;67787;50.074;21.904;2024-02-28T05:48:45;99171.95;;;8.22;68.06
36138;BME280;67787;50.074;21.904;2024-02-28T05:51:13;99173.39;;;8.25;67.93
36138;BME280;67787;50.074;21.904;2024-02-28T05:53:40;99174.60;;;8.28;68.00
36138;BME280;67787;50.074;21.904;2024-02-28T05:56:07;99177.80;;;8.30;67.94
36138;BME280;67787;50.074;21.904;2024-02-28T05:58:41;99182.02;;;8.34;68.01
36138;BME280;67787;50.074;21.904;2024-02-28T06:01:12;99183.59;;;8.37;67.99
36138;BME280;67787;50.074;21.904;2024-02-28T06:03:39;99181.40;;;8.41;68.12
36138;BME280;67787;50.074;21.904;2024-02-28T06:06:06;99181.91;;;8.44;68.11
36138;BME280;67787;50.074;21.904;2024-02-28T06:08:33;99186.11;;;8.48;67.97
36138;BME280;67787;50.074;21.904;2024-02-28T06:11:00;99185.48;;;8.50;68.06
36138;BME280;67787;50.074;21.904;2024-02-28T06:13:28;99191.42;;;8.51;68.08
36138;BME280;67787;50.074;21.904;2024-02-28T06:15:55;99194.68;;;8.52;68.04
36138;BME280;67787;50.074;21.904;2024-02-28T06:18:26;99195.70;;;8.51;67.98
36138;BME280;67787;50.074;21.904;2024-02-28T06:20:56;99195.23;;;8.43;67.85
36138;BME280;67787;50.074;21.904;2024-02-28T06:23:23;99195.69;;;8.36;67.96
36138;BME280;67787;50.074;21.904;2024-02-28T06:25:56;99196.98;;;8.29;67.86
36138;BME280;67787;50.074;21.904;2024-02-28T06:28:23;99197.86;;;8.23;68.11
36138;BME280;67787;50.074;21.904;2024-02-28T06:30:49;99198.88;;;8.15;68.31
36138;BME280;67787;50.074;21.904;2024-02-28T06:33:16;99206.20;;;8.11;68.41
36138;BME280;67787;50.074;21.904;2024-02-28T06:35:43;99208.60;;;8.12;68.28
36138;BME280;67787;50.074;21.904;2024-02-28T06:38:09;99206.52;;;8.11;68.38
36138;BME280;67787;50.074;21.904;2024-02-28T06:40:35;99204.11;;;8.10;68.55
36138;BME280;67787;50.074;21.904;2024-02-28T06:43:02;99205.23;;;8.09;68.44
36138;BME280;67787;50.074;21.904;2024-02-28T06:45:29;99204.23;;;8.08;68.52
36138;BME280;67787;50.074;21.904;2024-02-28T06:47:55;99203.17;;;8.08;68.60
36138;BME280;67787;50.074;21.904;2024-02-28T06:50:22;99199.98;;;8.08;68.76
36138;BME280;67787;50.074;21.904;2024-02-28T06:52:48;99203.81;;;8.12;68.66
36138;BME280;67787;50.074;21.904;2024-02-28T06:55:15;99205.20;;;8.15;68.65
36138;BME280;67787;50.074;21.904;2024-02-28T06:57:42;99207.55;;;8.17;68.76
36138;BME280;67787;50.074;21.904;2024-02-28T07:00:09;99211.55;;;8.18;68.76
36138;BME280;67787;50.074;21.904;2024-02-28T07:02:38;99207.33;;;8.18;68.46
36138;BME280;67787;50.074;21.904;2024-02-28T07:05:04;99208.58;;;8.15;68.62
36138;BME280;67787;50.074;21.904;2024-02-28T07:07:33;99202.42;;;8.15;68.54
36138;BME280;67787;50.074;21.904;2024-02-28T07:10:02;99206.01;;;8.17;68.93
36138;BME280;67787;50.074;21.904;2024-02-28T07:12:29;99206.23;;;8.19;68.95
36138;BME280;67787;50.074;21.904;2024-02-28T07:14:55;99210.05;;;8.20;68.75
36138;BME280;67787;50.074;21.904;2024-02-28T07:17:21;99211.44;;;8.20;68.73
36138;BME280;67787;50.074;21.904;2024-02-28T07:19:48;99213.41;;;8.19;68.92
36138;BME280;67787;50.074;21.904;2024-02-28T07:22:15;99213.84;;;8.22;69.11
36138;BME280;67787;50.074;21.904;2024-02-28T07:24:41;99217.02;;;8.25;69.18
36138;BME280;67787;50.074;21.904;2024-02-28T07:27:08;99220.21;;;8.27;69.27
36138;BME280;67787;50.074;21.904;2024-02-28T07:29:36;99215.73;;;8.31;69.27
36138;BME280;67787;50.074;21.904;2024-02-28T07:32:03;99209.12;;;8.35;69.22
36138;BME280;67787;50.074;21.904;2024-02-28T07:34:30;99210.66;;;8.39;69.31
36138;BME280;67787;50.074;21.904;2024-02-28T07:36:56;99214.99;;;8.46;69.34
36138;BME280;67787;50.074;21.904;2024-02-28T07:39:25;99221.73;;;8.55;69.41
36138;BME280;67787;50.074;21.904;2024-02-28T07:41:51;99218.83;;;8.65;69.40
36138;BME280;67787;50.074;21.904;2024-02-28T07:44:22;99214.38;;;8.74;69.57
36138;BME280;67787;50.074;21.904;2024-02-28T07:46:49;99211.50;;;8.81;69.36
36138;BME280;67787;50.074;21.904;2024-02-28T07:49:17;99214.64;;;8.87;69.50
36138;BME280;67787;50.074;21.904;2024-02-28T07:51:43;99210.70;;;8.91;69.51
36138;BME280;67787;50.074;21.904;2024-02-28T07:54:10;99213.59;;;8.96;69.42
36138;BME280;67787;50.074;21.904;2024-02-28T07:56:36;99218.67;;;8.99;69.46
36138;BME280;67787;50.074;21.904;2024-02-28T07:59:02;99219.64;;;9.00;69.38
36138;BME280;67787;50.074;21.904;2024-02-28T08:01:29;99222.70;;;8.99;69.49
36138;BME280;67787;50.074;21.904;2024-02-28T08:03:57;99225.86;;;9.00;69.48
36138;BME280;67787;50.074;21.904;2024-02-28T08:06:24;99226.20;;;9.03;69.58
36138;BME280;67787;50.074;21.904;2024-02-28T08:08:50;99224.65;;;9.08;69.59
36138;BME280;67787;50.074;21.904;2024-02-28T08:11:17;99225.91;;;9.13;69.55
36138;BME280;67787;50.074;21.904;2024-02-28T08:13:45;99226.17;;;9.17;69.59
36138;BME280;67787;50.074;21.904;2024-02-28T08:16:11;99228.22;;;9.24;69.58
36138;BME280;67787;50.074;21.904;2024-02-28T08:18:38;99219.86;;;9.30;69.61
36138;BME280;67787;50.074;21.904;2024-02-28T08:21:05;99220.32;;;9.37;69.61
36138;BME280;67787;50.074;21.904;2024-02-28T08:23:31;99225.59;;;9.46;69.87
36138;BME280;67787;50.074;21.904;2024-02-28T08:25:58;99225.25;;;9.59;69.75
36138;BME280;67787;50.074;21.904;2024-02-28T08:28:24;99230.77;;;9.75;69.83
36138;BME280;67787;50.074;21.904;2024-02-28T08:30:50;99232.92;;;9.90;69.70
36138;BME280;67787;50.074;21.904;2024-02-28T08:33:17;99234.83;;;10.04;69.80
36138;BME280;67787;50.074;21.904;2024-02-28T08:35:47;99231.48;;;10.17;69.80
36138;BME280;67787;50.074;21.904;2024-02-28T08:38:16;99229.41;;;10.32;69.63
36138;BME280;67787;50.074;21.904;2024-02-28T08:40:42;99238.63;;;10.45;69.82
36138;BME280;67787;50.074;21.904;2024-02-28T08:43:09;99237.88;;;10.56;69.72
36138;BME280;67787;50.074;21.904;2024-02-28T08:45:35;99228.98;;;10.67;69.76
36138;BME280;67787;50.074;21.904;2024-02-28T08:48:06;99229.81;;;10.80;69.80
36138;BME280;67787;50.074;21.904;2024-02-28T08:50:33;99229.69;;;10.92;69.74
36138;BME280;67787;50.074;21.904;2024-02-28T08:52:59;99225.10;;;11.02;69.78
36138;BME280;67787;50.074;21.904;2024-02-28T08:55:26;99226.43;;;11.13;69.70
36138;BME280;67787;50.074;21.904;2024-02-28T08:57:52;99229.30;;;11.23;69.68
36138;BME280;67787;50.074;21.904;2024-02-28T09:00:19;99229.95;;;11.30;69.64
36138;BME280;67787;50.074;21.904;2024-02-28T09:02:48;99224.39;;;11.39;69.64
36138;BME280;67787;50.074;21.904;2024-02-28T09:05:14;99222.88;;;11.50;69.67
36138;BME280;67787;50.074;21.904;2024-02-28T09:07:41;99218.05;;;11.60;69.71
36138;BME280;67787;50.074;21.904;2024-02-28T09:10:07;99218.23;;;11.69;69.77
36138;BME280;67787;50.074;21.904;2024-02-28T09:12:34;99220.55;;;11.79;69.77
36138;BME280;67787;50.074;21.904;2024-02-28T09:15:01;99222.33;;;11.90;69.66
36138;BME280;67787;50.074;21.904;2024-02-28T09:17:27;99220.26;;;12.02;69.69
36138;BME280;67787;50.074;21.904;2024-02-28T09:19:54;99220.71;;;12.12;69.64
36138;BME280;67787;50.074;21.904;2024-02-28T09:22:20;99219.27;;;12.22;69.68
36138;BME280;67787;50.074;21.904;2024-02-28T09:24:49;99220.34;;;12.29;69.59
36138;BME280;67787;50.074;21.904;2024-02-28T09:27:16;99221.39;;;12.36;69.53
36138;BME280;67787;50.074;21.904;2024-02-28T09:29:44;99224.83;;;12.44;69.31
36138;BME280;67787;50.074;21.904;2024-02-28T09:32:11;99226.70;;;12.50;69.36
36138;BME280;67787;50.074;21.904;2024-02-28T09:34:38;99225.34;;;12.56;69.42
36138;BME280;67787;50.074;21.904;2024-02-28T09:37:05;99224.43;;;12.63;69.27
36138;BME280;67787;50.074;21.904;2024-02-28T09:39:31;99228.30;;;12.68;69.36
36138;BME280;67787;50.074;21.904;2024-02-28T09:41:58;99221.17;;;12.75;69.39
36138;BME280;67787;50.074;21.904;2024-02-28T09:44:25;99223.69;;;12.82;69.26
36138;BME280;67787;50.074;21.904;2024-02-28T09:46:52;99223.63;;;12.89;69.19
36138;BME280;67787;50.074;21.904;2024-02-28T09:49:19;99225.84;;;12.95;69.09
36138;BME280;67787;50.074;21.904;2024-02-28T09:51:49;99229.23;;;13.00;68.91
36138;BME280;67787;50.074;21.904;2024-02-28T09:54:18;99236.65;;;13.05;68.77
36138;BME280;67787;50.074;21.904;2024-02-28T09:56:47;99237.15;;;13.09;68.80
36138;BME280;67787;50.074;21.904;2024-02-28T09:59:15;99236.86;;;13.16;68.84
36138;BME280;67787;50.074;21.904;2024-02-28T10:01:47;99236.13;;;13.20;68.70
36138;BME280;67787;50.074;21.904;2024-02-28T10:04:19;99241.73;;;13.26;68.57
36138;BME280;67787;50.074;21.904;2024-02-28T10:06:46;99241.67;;;13.29;68.40
36138;BME280;67787;50.074;21.904;2024-02-28T10:09:15;99245.86;;;13.32;68.29
36138;BME280;67787;50.074;21.904;2024-02-28T10:11:44;99245.67;;;13.34;68.18
36138;BME280;67787;50.074;21.904;2024-02-28T10:14:17;99244.65;;;13.36;68.29
36138;BME280;67787;50.074;21.904;2024-02-28T10:16:47;99245.62;;;13.39;68.12
36138;BME280;67787;50.074;21.904;2024-02-28T10:19:13;99248.50;;;13.42;67.92
36138;BME280;67787;50.074;21.904;2024-02-28T10:21:40;99249.23;;;13.46;67.93
36138;BME280;67787;50.074;21.904;2024-02-28T10:24:06;99251.29;;;13.51;67.82
36138;BME280;67787;50.074;21.904;2024-02-28T10:26:41;99249.17;;;13.55;67.71
36138;BME280;67787;50.074;21.904;2024-02-28T10:29:08;99251.40;;;13.59;67.72
36138;BME280;67787;50.074;21.904;2024-02-28T10:31:38;99252.79;;;13.61;67.53
36138;BME280;67787;50.074;21.904;2024-02-28T10:34:05;99247.79;;;13.64;67.34
36138;BME280;67787;50.074;21.904;2024-02-28T10:36:33;99251.42;;;13.65;67.31
36138;BME280;67787;50.074;21.904;2024-02-28T10:39:00;99251.45;;;13.67;67.33
36138;BME280;67787;50.074;21.904;2024-02-28T10:41:28;99254.13;;;13.69;67.15
36138;BME280;67787;50.074;21.904;2024-02-28T10:43:56;99253.21;;;13.74;67.00
36138;BME280;67787;50.074;21.904;2024-02-28T10:46:23;99253.38;;;13.76;66.99
36138;BME280;67787;50.074;21.904;2024-02-28T10:49:04;99253.02;;;13.78;66.93
36138;BME280;67787;50.074;21.904;2024-02-28T10:51:34;99249.45;;;13.80;66.85
36138;BME280;67787;50.074;21.904;2024-02-28T10:54:12;99246.64;;;13.82;66.73
36138;BME280;67787;50.074;21.904;2024-02-28T10:56:42;99249.80;;;13.80;66.31
36138;BME280;67787;50.074;21.904;2024-02-28T10:59:11;99251.67;;;13.81;66.28
36138;BME280;67787;50.074;21.904;2024-02-28T11:03:56;99249.66;;;13.86;66.29
36138;BME280;67787;50.074;21.904;2024-02-28T11:06:29;99250.82;;;13.88;65.72
36138;BME280;67787;50.074;21.904;2024-02-28T11:09:04;99249.14;;;13.89;65.79
36138;BME280;67787;50.074;21.904;2024-02-28T11:11:33;99246.23;;;13.89;65.82
36138;BME280;67787;50.074;21.904;2024-02-28T11:14:03;99248.19;;;13.93;65.69
36138;BME280;67787;50.074;21.904;2024-02-28T11:16:40;99249.52;;;13.94;65.50
36138;BME280;67787;50.074;21.904;2024-02-28T11:19:21;99245.48;;;13.94;65.31
36138;BME280;67787;50.074;21.904;2024-02-28T11:21:55;99240.36;;;13.93;65.31
36138;BME280;67787;50.074;21.904;2024-02-28T11:24:25;99244.42;;;13.94;65.28
36138;BME280;67787;50.074;21.904;2024-02-28T11:26:55;99245.68;;;13.94;65.26
36138;BME280;67787;50.074;21.904;2024-02-28T11:29:26;99246.25;;;13.93;65.06
36138;BME280;67787;50.074;21.904;2024-02-28T11:31:55;99244.54;;;13.94;65.05
36138;BME280;67787;50.074;21.904;2024-02-28T11:34:23;99244.86;;;13.95;64.92
36138;BME280;67787;50.074;21.904;2024-02-28T11:36:50;99242.40;;;13.96;64.90
36138;BME280;67787;50.074;21.904;2024-02-28T11:39:20;99237.52;;;13.97;64.76
36138;BME280;67787;50.074;21.904;2024-02-28T11:41:49;99240.25;;;13.99;64.72
36138;BME280;67787;50.074;21.904;2024-02-28T11:44:16;99242.45;;;13.98;64.68
36138;BME280;67787;50.074;21.904;2024-02-28T11:46:47;99242.73;;;13.97;64.44
36138;BME280;67787;50.074;21.904;2024-02-28T11:49:20;99241.11;;;13.97;64.37
36138;BME280;67787;50.074;21.904;2024-02-28T11:51:47;99242.24;;;13.98;64.29
36138;BME280;67787;50.074;21.904;2024-02-28T11:54:14;99245.68;;;14.00;64.13
36138;BME280;67787;50.074;21.904;2024-02-28T11:56:41;99243.33;;;14.01;63.90
36138;BME280;67787;50.074;21.904;2024-02-28T11:59:11;99246.39;;;14.00;63.95
36138;BME280;67787;50.074;21.904;2024-02-28T12:01:42;99246.45;;;14.02;64.00
36138;BME280;67787;50.074;21.904;2024-02-28T12:04:10;99244.48;;;14.01;63.97
36138;BME280;67787;50.074;21.904;2024-02-28T12:06:40;99242.40;;;14.03;63.88
36138;BME280;67787;50.074;21.904;2024-02-28T12:09:08;99246.59;;;14.04;63.82
36138;BME280;67787;50.074;21.904;2024-02-28T12:11:36;99244.60;;;14.05;63.74
36138;BME280;67787;50.074;21.904;2024-02-28T12:14:06;99243.27;;;14.07;63.75
36138;BME280;67787;50.074;21.904;2024-02-28T12:16:38;99242.98;;;14.09;63.65
36138;BME280;67787;50.074;21.904;2024-02-28T12:19:11;99242.57;;;14.09;63.55
36138;BME280;67787;50.074;21.904;2024-02-28T12:21:39;99243.08;;;14.12;63.55
36138;BME280;67787;50.074;21.904;2024-02-28T12:24:12;99248.80;;;14.14;63.57
36138;BME280;67787;50.074;21.904;2024-02-28T12:26:39;99250.34;;;14.17;63.42
36138;BME280;67787;50.074;21.904;2024-02-28T12:29:07;99251.13;;;14.18;63.28
36138;BME280;67787;50.074;21.904;2024-02-28T12:31:44;99250.03;;;14.18;63.26
36138;BME280;67787;50.074;21.904;2024-02-28T12:34:21;99253.15;;;14.20;63.16
36138;BME280;67787;50.074;21.904;2024-02-28T12:36:59;99252.77;;;14.20;63.00
36138;BME280;67787;50.074;21.904;2024-02-28T12:39:32;99249.20;;;14.20;62.98
36138;BME280;67787;50.074;21.904;2024-02-28T12:42:05;99248.70;;;14.21;62.94
36138;BME280;67787;50.074;21.904;2024-02-28T12:44:35;99249.82;;;14.23;62.84
36138;BME280;67787;50.074;21.904;2024-02-28T12:47:02;99251.66;;;14.22;62.78
36138;BME280;67787;50.074;21.904;2024-02-28T12:49:32;99254.55;;;14.21;62.53
36138;BME280;67787;50.074;21.904;2024-02-28T12:51:59;99252.69;;;14.19;62.49
36138;BME280;67787;50.074;21.904;2024-02-28T12:54:25;99256.11;;;14.16;62.42
36138;BME280;67787;50.074;21.904;2024-02-28T12:56:52;99254.31;;;14.14;62.46
36138;BME280;67787;50.074;21.904;2024-02-28T12:59:18;99253.10;;;14.13;62.41
36138;BME280;67787;50.074;21.904;2024-02-28T13:01:45;99253.52;;;14.13;62.46